sensor_id;sensor_type;location;lat;lon;timestamp;pressure;altitude;pressure_sealevel;temperature;humidity
53480;BME280;56133;51.012;-1.648;2022-08-19T00:01:52;100380.63;;;19.22;100.00
53480;BME280;56133;51.012;-1.648;2022-08-19T00:04:21;100379.19;;;19.26;100.00
53480;BME280;56133;51.012;-1.648;2022-08-19T00:06:47;100377.94;;;19.29;100.00
53480;BME280;56133;51.012;-1.648;2022-08-19T00:09:15;100376.91;;;19.30;100.00
53480;BME280;56133;51.012;-1.648;2022-08-19T00:11:41;100378.41;;;19.33;100.00
53480;BME280;56133;51.012;-1.648;2022-08-19T00:14:09;100372.13;;;19.32;100.00
53480;BME280;56133;51.012;-1.648;2022-08-19T00:16:39;100367.97;;;19.36;100.00
53480;BME280;56133;51.012;-1.648;2022-08-19T00:19:07;100370.81;;;19.28;100.00
53480;BME280;56133;51.012;-1.648;2022-08-19T00:21:33;100371.47;;;19.30;100.00
53480;BME280;56133;51.012;-1.648;2022-08-19T00:24:04;100375.22;;;19.29;100.00
53480;BME280;56133;51.012;-1.648;2022-08-19T00:26:30;100374.19;;;19.30;100.00
53480;BME280;56133;51.012;-1.648;2022-08-19T00:28:55;100375.88;;;19.31;100.00
53480;BME280;56133;51.012;-1.648;2022-08-19T00:31:21;100384.16;;;19.23;100.00
53480;BME280;56133;51.012;-1.648;2022-08-19T00:33:47;100384.63;;;19.26;100.00
53480;BME280;56133;51.012;-1.648;2022-08-19T00:36:15;100377.69;;;19.24;100.00
53480;BME280;56133;51.012;-1.648;2022-08-19T00:38:41;100373.53;;;19.28;100.00
53480;BME280;56133;51.012;-1.648;2022-08-19T00:41:08;100378.34;;;19.26;100.00
53480;BME280;56133;51.012;-1.648;2022-08-19T00:43:34;100375.16;;;19.22;100.00
53480;BME280;56133;51.012;-1.648;2022-08-19T00:46:00;100370.53;;;19.23;100.00
53480;BME280;56133;51.012;-1.648;2022-08-19T00:48:28;100374.50;;;19.20;100.00
53480;BME280;56133;51.012;-1.648;2022-08-19T00:50:53;100373.19;;;19.16;100.00
53480;BME280;56133;51.012;-1.648;2022-08-19T00:53:24;100368.41;;;19.18;100.00
53480;BME280;56133;51.012;-1.648;2022-08-19T00:55:53;100373.59;;;19.13;100.00
53480;BME280;56133;51.012;-1.648;2022-08-19T00:58:22;100376.72;;;19.10;100.00
53480;BME280;56133;51.012;-1.648;2022-08-19T01:00:49;100369.97;;;19.06;100.00
53480;BME280;56133;51.012;-1.648;2022-08-19T01:03:17;100376.78;;;19.17;100.00
53480;BME280;56133;51.012;-1.648;2022-08-19T01:05:44;100372.38;;;19.16;100.00
53480;BME280;56133;51.012;-1.648;2022-08-19T01:08:10;100370.88;;;19.13;100.00
53480;BME280;56133;51.012;-1.648;2022-08-19T01:10:42;100364.53;;;19.06;100.00
53480;BME280;56133;51.012;-1.648;2022-08-19T01:13:08;100365.28;;;19.00;100.00
53480;BME280;56133;51.012;-1.648;2022-08-19T01:15:42;100367.44;;;19.04;100.00
53480;BME280;56133;51.012;-1.648;2022-08-19T01:18:10;100364.25;;;19.01;100.00
53480;BME280;56133;51.012;-1.648;2022-08-19T01:20:37;100367.34;;;18.98;100.00
53480;BME280;56133;51.012;-1.648;2022-08-19T01:23:04;100368.88;;;19.00;100.00
53480;BME280;56133;51.012;-1.648;2022-08-19T01:25:35;100369.91;;;18.99;100.00
53480;BME280;56133;51.012;-1.648;2022-08-19T01:28:02;100368.38;;;18.96;100.00
53480;BME280;56133;51.012;-1.648;2022-08-19T01:30:33;100366.41;;;18.90;100.00
53480;BME280;56133;51.012;-1.648;2022-08-19T01:32:59;100373.28;;;18.86;100.00
53480;BME280;56133;51.012;-1.648;2022-08-19T01:35:27;100370.69;;;18.78;100.00
53480;BME280;56133;51.012;-1.648;2022-08-19T01:40:22;100371.16;;;18.66;100.00
53480;BME280;56133;51.012;-1.648;2022-08-19T01:42:49;100360.84;;;18.62;100.00
53480;BME280;56133;51.012;-1.648;2022-08-19T01:45:16;100365.25;;;18.63;100.00
53480;BME280;56133;51.012;-1.648;2022-08-19T01:47:42;100369.97;;;18.54;100.00
53480;BME280;56133;51.012;-1.648;2022-08-19T01:50:09;100367.25;;;18.54;100.00
53480;BME280;56133;51.012;-1.648;2022-08-19T01:52:37;100366.97;;;18.49;100.00
53480;BME280;56133;51.012;-1.648;2022-08-19T01:55:06;100367.63;;;18.51;100.00
53480;BME280;56133;51.012;-1.648;2022-08-19T01:57:32;100365.25;;;18.48;100.00
53480;BME280;56133;51.012;-1.648;2022-08-19T01:59:57;100364.53;;;18.39;100.00
53480;BME280;56133;51.012;-1.648;2022-08-19T02:02:23;100367.81;;;18.34;100.00
53480;BME280;56133;51.012;-1.648;2022-08-19T02:04:48;100374.94;;;18.35;100.00
53480;BME280;56133;51.012;-1.648;2022-08-19T02:07:15;100380.19;;;18.37;100.00
53480;BME280;56133;51.012;-1.648;2022-08-19T02:09:40;100379.56;;;18.35;100.00
53480;BME280;56133;51.012;-1.648;2022-08-19T02:12:06;100378.31;;;18.38;100.00
53480;BME280;56133;51.012;-1.648;2022-08-19T02:14:34;100378.91;;;18.33;100.00
53480;BME280;56133;51.012;-1.648;2022-08-19T02:17:00;100382.28;;;18.35;100.00
53480;BME280;56133;51.012;-1.648;2022-08-19T02:19:26;100386.19;;;18.32;100.00
53480;BME280;56133;51.012;-1.648;2022-08-19T02:21:51;100383.22;;;18.27;100.00
53480;BME280;56133;51.012;-1.648;2022-08-19T02:24:17;100386.75;;;18.28;100.00
53480;BME280;56133;51.012;-1.648;2022-08-19T02:26:42;100381.53;;;18.26;100.00
53480;BME280;56133;51.012;-1.648;2022-08-19T02:29:08;100381.03;;;18.23;100.00
53480;BME280;56133;51.012;-1.648;2022-08-19T02:31:33;100385.06;;;18.27;100.00
53480;BME280;56133;51.012;-1.648;2022-08-19T02:33:59;100380.19;;;18.22;100.00
53480;BME280;56133;51.012;-1.648;2022-08-19T02:36:26;100379.25;;;18.15;100.00
53480;BME280;56133;51.012;-1.648;2022-08-19T02:38:53;100378.41;;;18.14;100.00
53480;BME280;56133;51.012;-1.648;2022-08-19T02:41:23;100373.06;;;18.06;100.00
53480;BME280;56133;51.012;-1.648;2022-08-19T02:43:48;100375.88;;;17.98;100.00
53480;BME280;56133;51.012;-1.648;2022-08-19T02:46:24;100370.47;;;17.89;100.00
53480;BME280;56133;51.012;-1.648;2022-08-19T02:48:53;100377.88;;;17.81;100.00
53480;BME280;56133;51.012;-1.648;2022-08-19T02:51:21;100384.06;;;17.74;100.00
53480;BME280;56133;51.012;-1.648;2022-08-19T02:53:47;100389.19;;;17.69;100.00
53480;BME280;56133;51.012;-1.648;2022-08-19T02:56:12;100383.56;;;17.71;100.00
53480;BME280;56133;51.012;-1.648;2022-08-19T02:58:38;100389.09;;;17.78;100.00
53480;BME280;56133;51.012;-1.648;2022-08-19T03:01:04;100398.41;;;17.83;100.00
53480;BME280;56133;51.012;-1.648;2022-08-19T03:03:29;100383.97;;;17.83;100.00
53480;BME280;56133;51.012;-1.648;2022-08-19T03:06:13;100381.69;;;17.71;100.00
53480;BME280;56133;51.012;-1.648;2022-08-19T03:08:43;100385.13;;;17.65;100.00
53480;BME280;56133;51.012;-1.648;2022-08-19T03:11:18;100383.34;;;17.57;100.00
53480;BME280;56133;51.012;-1.648;2022-08-19T03:13:43;100398.63;;;17.58;100.00
53480;BME280;56133;51.012;-1.648;2022-08-19T03:16:10;100403.31;;;17.65;100.00
53480;BME280;56133;51.012;-1.648;2022-08-19T03:18:36;100391.59;;;17.64;100.00
53480;BME280;56133;51.012;-1.648;2022-08-19T03:21:01;100396.47;;;17.69;100.00
53480;BME280;56133;51.012;-1.648;2022-08-19T03:23:27;100398.06;;;17.63;100.00
53480;BME280;56133;51.012;-1.648;2022-08-19T03:25:53;100395.91;;;17.58;100.00
53480;BME280;56133;51.012;-1.648;2022-08-19T03:28:19;100397.78;;;17.58;100.00
53480;BME280;56133;51.012;-1.648;2022-08-19T03:31:01;100404.91;;;17.59;100.00
53480;BME280;56133;51.012;-1.648;2022-08-19T03:33:28;100397.22;;;17.63;100.00
53480;BME280;56133;51.012;-1.648;2022-08-19T03:36:15;100400.31;;;17.59;100.00
53480;BME280;56133;51.012;-1.648;2022-08-19T03:38:45;100398.91;;;17.64;100.00
53480;BME280;56133;51.012;-1.648;2022-08-19T03:41:20;100398.38;;;17.68;100.00
53480;BME280;56133;51.012;-1.648;2022-08-19T03:43:47;100402.94;;;17.68;100.00
53480;BME280;56133;51.012;-1.648;2022-08-19T03:46:15;100402.78;;;17.69;100.00
53480;BME280;56133;51.012;-1.648;2022-08-19T03:48:42;100400.97;;;17.62;100.00
53480;BME280;56133;51.012;-1.648;2022-08-19T03:51:19;100411.53;;;17.56;100.00
53480;BME280;56133;51.012;-1.648;2022-08-19T03:53:46;100409.72;;;17.49;100.00
53480;BME280;56133;51.012;-1.648;2022-08-19T03:56:12;100415.03;;;17.42;100.00
53480;BME280;56133;51.012;-1.648;2022-08-19T03:58:38;100417.28;;;17.38;100.00
53480;BME280;56133;51.012;-1.648;2022-08-19T04:01:13;100423.00;;;17.43;100.00
53480;BME280;56133;51.012;-1.648;2022-08-19T04:03:39;100424.28;;;17.56;100.00
53480;BME280;56133;51.012;-1.648;2022-08-19T04:06:15;100414.72;;;17.60;100.00
53480;BME280;56133;51.012;-1.648;2022-08-19T04:08:42;100415.56;;;17.60;100.00
53480;BME280;56133;51.012;-1.648;2022-08-19T04:11:09;100417.56;;;17.67;100.00
53480;BME280;56133;51.012;-1.648;2022-08-19T04:13:35;100423.13;;;17.73;100.00
53480;BME280;56133;51.012;-1.648;2022-08-19T04:16:00;100431.78;;;17.69;100.00
53480;BME280;56133;51.012;-1.648;2022-08-19T04:18:26;100434.91;;;17.66;100.00
53480;BME280;56133;51.012;-1.648;2022-08-19T04:20:55;100438.38;;;17.51;100.00
53480;BME280;56133;51.012;-1.648;2022-08-19T04:23:20;100433.84;;;17.43;100.00
53480;BME280;56133;51.012;-1.648;2022-08-19T04:25:46;100428.13;;;17.38;100.00
53480;BME280;56133;51.012;-1.648;2022-08-19T04:28:12;100425.47;;;17.30;100.00
53480;BME280;56133;51.012;-1.648;2022-08-19T04:30:43;100417.97;;;17.09;100.00
53480;BME280;56133;51.012;-1.648;2022-08-19T04:33:13;100431.34;;;17.10;100.00
53480;BME280;56133;51.012;-1.648;2022-08-19T04:35:41;100430.38;;;17.03;100.00
53480;BME280;56133;51.012;-1.648;2022-08-19T04:38:08;100439.06;;;16.98;100.00
53480;BME280;56133;51.012;-1.648;2022-08-19T04:40:39;100437.03;;;16.92;100.00
53480;BME280;56133;51.012;-1.648;2022-08-19T04:43:23;100436.72;;;16.95;100.00
53480;BME280;56133;51.012;-1.648;2022-08-19T04:45:49;100435.50;;;16.98;100.00
53480;BME280;56133;51.012;-1.648;2022-08-19T04:48:16;100439.94;;;16.91;100.00
53480;BME280;56133;51.012;-1.648;2022-08-19T04:50:44;100446.69;;;16.95;100.00
53480;BME280;56133;51.012;-1.648;2022-08-19T04:53:10;100440.94;;;16.98;100.00
53480;BME280;56133;51.012;-1.648;2022-08-19T04:55:39;100446.00;;;17.01;100.00
53480;BME280;56133;51.012;-1.648;2022-08-19T04:58:05;100444.25;;;17.08;100.00
53480;BME280;56133;51.012;-1.648;2022-08-19T05:00:31;100444.44;;;17.07;100.00
53480;BME280;56133;51.012;-1.648;2022-08-19T05:02:57;100457.19;;;17.06;100.00
53480;BME280;56133;51.012;-1.648;2022-08-19T05:05:22;100459.03;;;17.06;100.00
53480;BME280;56133;51.012;-1.648;2022-08-19T05:07:47;100456.00;;;17.01;100.00
53480;BME280;56133;51.012;-1.648;2022-08-19T05:10:13;100460.25;;;17.03;100.00
53480;BME280;56133;51.012;-1.648;2022-08-19T05:12:38;100460.78;;;16.98;100.00
53480;BME280;56133;51.012;-1.648;2022-08-19T05:15:06;100458.91;;;16.91;100.00
53480;BME280;56133;51.012;-1.648;2022-08-19T05:17:33;100462.81;;;16.96;100.00
53480;BME280;56133;51.012;-1.648;2022-08-19T05:19:59;100460.13;;;16.96;100.00
53480;BME280;56133;51.012;-1.648;2022-08-19T05:22:44;100470.09;;;17.04;100.00
53480;BME280;56133;51.012;-1.648;2022-08-19T05:25:13;100470.91;;;17.05;100.00
53480;BME280;56133;51.012;-1.648;2022-08-19T05:27:40;100481.91;;;17.11;100.00
53480;BME280;56133;51.012;-1.648;2022-08-19T05:30:06;100477.47;;;17.19;100.00
53480;BME280;56133;51.012;-1.648;2022-08-19T05:32:31;100478.28;;;17.19;100.00
53480;BME280;56133;51.012;-1.648;2022-08-19T05:34:57;100485.56;;;17.27;100.00
53480;BME280;56133;51.012;-1.648;2022-08-19T05:37:22;100488.78;;;17.31;100.00
53480;BME280;56133;51.012;-1.648;2022-08-19T05:39:48;100494.00;;;17.32;100.00
53480;BME280;56133;51.012;-1.648;2022-08-19T05:42:15;100482.81;;;17.35;100.00
53480;BME280;56133;51.012;-1.648;2022-08-19T05:44:43;100492.31;;;17.31;100.00
53480;BME280;56133;51.012;-1.648;2022-08-19T05:47:13;100487.75;;;17.32;100.00
53480;BME280;56133;51.012;-1.648;2022-08-19T05:49:40;100491.09;;;17.34;100.00
53480;BME280;56133;51.012;-1.648;2022-08-19T05:52:09;100495.22;;;17.29;100.00
53480;BME280;56133;51.012;-1.648;2022-08-19T05:54:37;100497.75;;;17.31;100.00
53480;BME280;56133;51.012;-1.648;2022-08-19T05:57:05;100495.38;;;17.28;100.00
53480;BME280;56133;51.012;-1.648;2022-08-19T05:59:30;100497.44;;;17.26;100.00
53480;BME280;56133;51.012;-1.648;2022-08-19T06:01:56;100494.72;;;17.26;100.00
53480;BME280;56133;51.012;-1.648;2022-08-19T06:04:23;100492.63;;;17.36;100.00
53480;BME280;56133;51.012;-1.648;2022-08-19T06:06:50;100497.09;;;17.29;100.00
53480;BME280;56133;51.012;-1.648;2022-08-19T06:09:18;100494.09;;;17.47;100.00
53480;BME280;56133;51.012;-1.648;2022-08-19T06:11:52;100489.56;;;17.39;100.00
53480;BME280;56133;51.012;-1.648;2022-08-19T06:14:23;100483.41;;;17.45;100.00
53480;BME280;56133;51.012;-1.648;2022-08-19T06:16:49;100487.16;;;17.44;100.00
53480;BME280;56133;51.012;-1.648;2022-08-19T06:19:18;100487.38;;;17.35;100.00
53480;BME280;56133;51.012;-1.648;2022-08-19T06:21:46;100493.91;;;17.49;100.00
53480;BME280;56133;51.012;-1.648;2022-08-19T06:24:15;100492.75;;;17.43;100.00
53480;BME280;56133;51.012;-1.648;2022-08-19T06:26:48;100492.22;;;17.48;100.00
53480;BME280;56133;51.012;-1.648;2022-08-19T06:29:16;100487.16;;;17.44;100.00
53480;BME280;56133;51.012;-1.648;2022-08-19T06:31:45;100485.84;;;17.40;100.00
53480;BME280;56133;51.012;-1.648;2022-08-19T06:34:12;100491.25;;;17.40;100.00
53480;BME280;56133;51.012;-1.648;2022-08-19T06:36:40;100490.75;;;17.37;100.00
53480;BME280;56133;51.012;-1.648;2022-08-19T06:39:12;100487.56;;;17.33;100.00
53480;BME280;56133;51.012;-1.648;2022-08-19T06:41:41;100492.63;;;17.36;100.00
53480;BME280;56133;51.012;-1.648;2022-08-19T06:44:07;100486.06;;;17.31;100.00
53480;BME280;56133;51.012;-1.648;2022-08-19T06:46:33;100496.63;;;17.17;100.00
53480;BME280;56133;51.012;-1.648;2022-08-19T06:48:59;100502.25;;;17.16;100.00
53480;BME280;56133;51.012;-1.648;2022-08-19T06:51:25;100515.16;;;17.13;100.00
53480;BME280;56133;51.012;-1.648;2022-08-19T06:53:53;100516.84;;;17.14;100.00
53480;BME280;56133;51.012;-1.648;2022-08-19T06:56:21;100515.34;;;17.12;100.00
53480;BME280;56133;51.012;-1.648;2022-08-19T06:58:48;100527.75;;;17.06;100.00
53480;BME280;56133;51.012;-1.648;2022-08-19T07:01:19;100525.53;;;17.02;100.00
53480;BME280;56133;51.012;-1.648;2022-08-19T07:03:45;100534.50;;;17.10;100.00
53480;BME280;56133;51.012;-1.648;2022-08-19T07:06:13;100534.50;;;17.10;100.00
53480;BME280;56133;51.012;-1.648;2022-08-19T07:08:40;100529.47;;;16.99;100.00
53480;BME280;56133;51.012;-1.648;2022-08-19T07:11:08;100531.97;;;17.09;100.00
53480;BME280;56133;51.012;-1.648;2022-08-19T07:13:35;100524.22;;;16.97;100.00
53480;BME280;56133;51.012;-1.648;2022-08-19T07:16:13;100530.88;;;17.26;100.00
53480;BME280;56133;51.012;-1.648;2022-08-19T07:18:40;100528.25;;;17.41;100.00
53480;BME280;56133;51.012;-1.648;2022-08-19T07:21:07;100523.38;;;17.60;100.00
53480;BME280;56133;51.012;-1.648;2022-08-19T07:23:34;100531.41;;;17.53;100.00
53480;BME280;56133;51.012;-1.648;2022-08-19T07:28:36;100532.69;;;17.66;100.00
53480;BME280;56133;51.012;-1.648;2022-08-19T07:31:07;100533.50;;;17.74;100.00
53480;BME280;56133;51.012;-1.648;2022-08-19T07:33:34;100533.34;;;17.68;100.00
53480;BME280;56133;51.012;-1.648;2022-08-19T07:36:06;100530.59;;;17.76;100.00
53480;BME280;56133;51.012;-1.648;2022-08-19T07:38:33;100534.00;;;18.01;100.00
53480;BME280;56133;51.012;-1.648;2022-08-19T07:40:59;100535.59;;;18.11;100.00
53480;BME280;56133;51.012;-1.648;2022-08-19T07:43:26;100528.50;;;18.10;100.00
53480;BME280;56133;51.012;-1.648;2022-08-19T07:45:53;100528.47;;;18.33;100.00
53480;BME280;56133;51.012;-1.648;2022-08-19T07:48:25;100533.03;;;18.32;100.00
53480;BME280;56133;51.012;-1.648;2022-08-19T07:50:56;100526.88;;;18.54;100.00
53480;BME280;56133;51.012;-1.648;2022-08-19T07:53:23;100537.22;;;18.73;100.00
53480;BME280;56133;51.012;-1.648;2022-08-19T07:55:50;100542.00;;;18.56;100.00
53480;BME280;56133;51.012;-1.648;2022-08-19T07:58:19;100538.69;;;18.46;100.00
53480;BME280;56133;51.012;-1.648;2022-08-19T08:00:47;100537.41;;;18.57;100.00
53480;BME280;56133;51.012;-1.648;2022-08-19T08:03:16;100541.53;;;18.68;100.00
53480;BME280;56133;51.012;-1.648;2022-08-19T08:05:41;100542.31;;;18.76;100.00
53480;BME280;56133;51.012;-1.648;2022-08-19T08:08:26;100538.75;;;18.76;100.00
53480;BME280;56133;51.012;-1.648;2022-08-19T08:11:12;100541.88;;;19.03;100.00
53480;BME280;56133;51.012;-1.648;2022-08-19T08:13:37;100541.81;;;19.33;100.00
53480;BME280;56133;51.012;-1.648;2022-08-19T08:16:03;100547.69;;;19.30;100.00
53480;BME280;56133;51.012;-1.648;2022-08-19T08:18:29;100550.47;;;19.73;100.00
53480;BME280;56133;51.012;-1.648;2022-08-19T08:20:55;100548.03;;;20.00;100.00
53480;BME280;56133;51.012;-1.648;2022-08-19T08:23:21;100545.31;;;20.00;97.49
53480;BME280;56133;51.012;-1.648;2022-08-19T08:25:48;100549.94;;;19.99;92.74
53480;BME280;56133;51.012;-1.648;2022-08-19T08:28:15;100559.66;;;20.09;92.92
53480;BME280;56133;51.012;-1.648;2022-08-19T08:30:40;100556.03;;;20.23;96.81
53480;BME280;56133;51.012;-1.648;2022-08-19T08:33:08;100555.13;;;20.16;92.08
53480;BME280;56133;51.012;-1.648;2022-08-19T08:35:33;100552.44;;;20.44;90.89
53480;BME280;56133;51.012;-1.648;2022-08-19T08:37:59;100548.41;;;20.69;99.19
53480;BME280;56133;51.012;-1.648;2022-08-19T08:43:22;100550.50;;;21.44;85.01
53480;BME280;56133;51.012;-1.648;2022-08-19T08:46:14;100552.28;;;21.23;82.19
53480;BME280;56133;51.012;-1.648;2022-08-19T08:51:18;100566.41;;;20.63;72.77
53480;BME280;56133;51.012;-1.648;2022-08-19T08:53:47;100571.59;;;20.80;72.69
53480;BME280;56133;51.012;-1.648;2022-08-19T08:56:14;100564.84;;;20.75;73.72
53480;BME280;56133;51.012;-1.648;2022-08-19T08:58:42;100574.38;;;20.86;74.79
53480;BME280;56133;51.012;-1.648;2022-08-19T09:01:11;100568.75;;;20.95;69.27
53480;BME280;56133;51.012;-1.648;2022-08-19T09:03:39;100567.13;;;21.42;69.52
53480;BME280;56133;51.012;-1.648;2022-08-19T09:09:14;100578.31;;;21.19;63.26
53480;BME280;56133;51.012;-1.648;2022-08-19T09:16:39;100575.56;;;20.49;66.74
53480;BME280;56133;51.012;-1.648;2022-08-19T09:19:07;100578.41;;;20.90;66.36
53480;BME280;56133;51.012;-1.648;2022-08-19T09:21:33;100581.00;;;21.05;63.15
53480;BME280;56133;51.012;-1.648;2022-08-19T09:24:03;100582.97;;;20.83;60.53
53480;BME280;56133;51.012;-1.648;2022-08-19T09:26:30;100586.66;;;20.47;56.85
53480;BME280;56133;51.012;-1.648;2022-08-19T09:28:57;100585.13;;;20.16;56.42
53480;BME280;56133;51.012;-1.648;2022-08-19T09:31:26;100590.50;;;20.09;55.74
53480;BME280;56133;51.012;-1.648;2022-08-19T09:33:53;100593.41;;;20.29;61.31
53480;BME280;56133;51.012;-1.648;2022-08-19T09:36:23;100591.81;;;20.63;62.60
53480;BME280;56133;51.012;-1.648;2022-08-19T09:38:50;100588.00;;;20.80;55.20
53480;BME280;56133;51.012;-1.648;2022-08-19T09:41:19;100586.75;;;21.17;55.12
53480;BME280;56133;51.012;-1.648;2022-08-19T09:43:46;100592.13;;;21.46;51.65
53480;BME280;56133;51.012;-1.648;2022-08-19T09:46:13;100587.25;;;21.83;54.90
53480;BME280;56133;51.012;-1.648;2022-08-19T09:48:39;100593.56;;;21.35;53.18
53480;BME280;56133;51.012;-1.648;2022-08-19T09:51:11;100589.34;;;21.81;53.96
53480;BME280;56133;51.012;-1.648;2022-08-19T09:53:38;100591.72;;;22.11;52.04
53480;BME280;56133;51.012;-1.648;2022-08-19T09:56:05;100596.69;;;21.80;47.88
53480;BME280;56133;51.012;-1.648;2022-08-19T09:58:32;100594.78;;;21.67;53.08
53480;BME280;56133;51.012;-1.648;2022-08-19T10:00:59;100594.03;;;22.14;52.17
53480;BME280;56133;51.012;-1.648;2022-08-19T10:03:27;100593.63;;;22.10;49.48
53480;BME280;56133;51.012;-1.648;2022-08-19T10:05:53;100593.31;;;21.78;47.96
53480;BME280;56133;51.012;-1.648;2022-08-19T10:08:24;100601.63;;;21.50;45.64
53480;BME280;56133;51.012;-1.648;2022-08-19T10:10:51;100602.41;;;21.44;45.42
53480;BME280;56133;51.012;-1.648;2022-08-19T10:13:19;100598.94;;;22.66;46.37
53480;BME280;56133;51.012;-1.648;2022-08-19T10:15:48;100593.00;;;24.07;46.02
53480;BME280;56133;51.012;-1.648;2022-08-19T10:18:16;100594.81;;;24.20;45.73
53480;BME280;56133;51.012;-1.648;2022-08-19T10:20:43;100592.50;;;24.17;42.89
53480;BME280;56133;51.012;-1.648;2022-08-19T10:23:11;100592.34;;;23.00;44.39
53480;BME280;56133;51.012;-1.648;2022-08-19T10:25:36;100599.56;;;22.74;41.70
53480;BME280;56133;51.012;-1.648;2022-08-19T10:28:02;100598.31;;;22.43;42.68
53480;BME280;56133;51.012;-1.648;2022-08-19T10:30:28;100596.56;;;22.89;43.05
53480;BME280;56133;51.012;-1.648;2022-08-19T10:32:54;100599.31;;;23.03;41.28
53480;BME280;56133;51.012;-1.648;2022-08-19T10:35:19;100605.88;;;22.88;40.50
53480;BME280;56133;51.012;-1.648;2022-08-19T10:37:45;100607.75;;;22.95;41.25
53480;BME280;56133;51.012;-1.648;2022-08-19T10:40:11;100594.47;;;22.31;43.25
53480;BME280;56133;51.012;-1.648;2022-08-19T10:42:37;100599.53;;;23.67;40.80
53480;BME280;56133;51.012;-1.648;2022-08-19T10:45:03;100601.44;;;24.88;41.46
53480;BME280;56133;51.012;-1.648;2022-08-19T10:47:31;100592.69;;;24.22;39.29
53480;BME280;56133;51.012;-1.648;2022-08-19T10:49:56;100601.34;;;24.76;39.26
53480;BME280;56133;51.012;-1.648;2022-08-19T10:52:42;100609.56;;;25.02;36.52
53480;BME280;56133;51.012;-1.648;2022-08-19T10:55:08;100603.28;;;25.69;38.00
53480;BME280;56133;51.012;-1.648;2022-08-19T10:57:52;100590.78;;;26.15;37.44
53480;BME280;56133;51.012;-1.648;2022-08-19T11:00:20;100615.09;;;25.88;36.75
53480;BME280;56133;51.012;-1.648;2022-08-19T11:02:45;100602.34;;;25.94;34.91
53480;BME280;56133;51.012;-1.648;2022-08-19T11:05:12;100602.88;;;26.69;36.17
53480;BME280;56133;51.012;-1.648;2022-08-19T11:07:39;100605.59;;;27.28;35.44
53480;BME280;56133;51.012;-1.648;2022-08-19T11:10:06;100607.56;;;26.80;33.57
53480;BME280;56133;51.012;-1.648;2022-08-19T11:12:31;100608.25;;;26.63;34.78
53480;BME280;56133;51.012;-1.648;2022-08-19T11:14:58;100616.78;;;26.86;33.58
53480;BME280;56133;51.012;-1.648;2022-08-19T11:17:23;100606.91;;;28.07;34.43
53480;BME280;56133;51.012;-1.648;2022-08-19T11:19:49;100608.06;;;27.94;31.88
53480;BME280;56133;51.012;-1.648;2022-08-19T11:22:15;100604.84;;;27.85;29.74
53480;BME280;56133;51.012;-1.648;2022-08-19T11:24:41;100612.06;;;26.62;32.23
53480;BME280;56133;51.012;-1.648;2022-08-19T11:27:07;100602.53;;;26.89;32.03
53480;BME280;56133;51.012;-1.648;2022-08-19T11:29:35;100597.28;;;26.87;31.50
53480;BME280;56133;51.012;-1.648;2022-08-19T11:32:05;100616.50;;;26.09;33.48
53480;BME280;56133;51.012;-1.648;2022-08-19T11:34:31;100610.41;;;26.73;31.45
53480;BME280;56133;51.012;-1.648;2022-08-19T11:36:57;100595.75;;;26.37;31.81
53480;BME280;56133;51.012;-1.648;2022-08-19T11:39:26;100598.91;;;27.00;32.91
53480;BME280;56133;51.012;-1.648;2022-08-19T11:41:52;100608.81;;;28.07;31.06
53480;BME280;56133;51.012;-1.648;2022-08-19T11:44:18;100615.16;;;27.37;30.87
53480;BME280;56133;51.012;-1.648;2022-08-19T11:46:44;100615.69;;;28.84;32.63
53480;BME280;56133;51.012;-1.648;2022-08-19T11:49:16;100616.81;;;28.20;29.99
53480;BME280;56133;51.012;-1.648;2022-08-19T11:51:41;100625.25;;;28.76;31.51
53480;BME280;56133;51.012;-1.648;2022-08-19T11:54:09;100615.34;;;28.63;29.85
53480;BME280;56133;51.012;-1.648;2022-08-19T11:56:37;100610.13;;;27.58;29.90
53480;BME280;56133;51.012;-1.648;2022-08-19T11:59:02;100609.25;;;27.05;35.26
53480;BME280;56133;51.012;-1.648;2022-08-19T12:01:28;100606.78;;;28.14;30.71
53480;BME280;56133;51.012;-1.648;2022-08-19T12:03:55;100615.91;;;27.33;30.32
53480;BME280;56133;51.012;-1.648;2022-08-19T12:06:27;100613.69;;;27.99;30.35
53480;BME280;56133;51.012;-1.648;2022-08-19T12:09:04;100611.00;;;28.68;29.90
53480;BME280;56133;51.012;-1.648;2022-08-19T12:11:30;100599.94;;;28.68;29.59
53480;BME280;56133;51.012;-1.648;2022-08-19T12:13:56;100608.22;;;29.24;30.40
53480;BME280;56133;51.012;-1.648;2022-08-19T12:16:25;100605.84;;;30.32;29.33
53480;BME280;56133;51.012;-1.648;2022-08-19T12:18:54;100614.81;;;30.44;27.28
53480;BME280;56133;51.012;-1.648;2022-08-19T12:21:23;100621.50;;;27.62;29.75
53480;BME280;56133;51.012;-1.648;2022-08-19T12:23:53;100612.66;;;28.52;29.71
53480;BME280;56133;51.012;-1.648;2022-08-19T12:26:20;100610.44;;;29.44;28.47
53480;BME280;56133;51.012;-1.648;2022-08-19T12:28:45;100614.25;;;28.82;29.12
53480;BME280;56133;51.012;-1.648;2022-08-19T12:31:13;100613.31;;;26.90;30.85
53480;BME280;56133;51.012;-1.648;2022-08-19T12:33:40;100609.84;;;27.07;32.11
53480;BME280;56133;51.012;-1.648;2022-08-19T12:36:08;100609.56;;;28.31;31.04
53480;BME280;56133;51.012;-1.648;2022-08-19T12:38:34;100608.41;;;27.69;31.94
53480;BME280;56133;51.012;-1.648;2022-08-19T12:41:00;100613.19;;;25.88;33.97
53480;BME280;56133;51.012;-1.648;2022-08-19T12:43:26;100612.00;;;27.05;32.93
53480;BME280;56133;51.012;-1.648;2022-08-19T12:45:52;100605.97;;;26.72;32.50
53480;BME280;56133;51.012;-1.648;2022-08-19T12:48:17;100606.72;;;26.13;33.02
53480;BME280;56133;51.012;-1.648;2022-08-19T12:50:44;100606.00;;;26.84;33.38
53480;BME280;56133;51.012;-1.648;2022-08-19T12:53:13;100606.63;;;28.21;32.11
53480;BME280;56133;51.012;-1.648;2022-08-19T12:55:40;100596.13;;;29.30;29.55